createdAt,value
2023-01-27T00:00:51.035Z,101952.19
2023-01-27T00:03:18.314Z,101948.25
2023-01-27T00:05:45.553Z,101945.22
2023-01-27T00:08:12.872Z,101944.19
2023-01-27T00:10:39.648Z,101948.72
2023-01-27T00:13:25.307Z,101953.97
2023-01-27T00:15:52.250Z,101963.34
2023-01-27T00:18:19.047Z,101957.44
2023-01-27T00:21:05.959Z,101959.78
2023-01-27T00:23:51.323Z,101956.50
2023-01-27T00:26:18.922Z,101953.38
2023-01-27T00:28:46.371Z,101962.44
2023-01-27T00:31:32.978Z,101962.44
2023-01-27T00:34:09.179Z,101967.66
2023-01-27T00:36:40.075Z,101971.81
2023-01-27T00:39:07.940Z,101953.00
2023-01-27T00:41:35.248Z,101952.06
2023-01-27T00:44:02.826Z,101951.75
2023-01-27T00:46:29.735Z,101946.69
2023-01-27T00:48:56.669Z,101961.13
2023-01-27T00:51:23.904Z,101945.06
2023-01-27T00:53:50.810Z,101950.78
2023-01-27T00:56:17.984Z,101949.06
2023-01-27T00:58:44.822Z,101950.34
2023-01-27T01:01:13.384Z,101953.22
2023-01-27T01:03:40.493Z,101956.72
2023-01-27T01:06:08.821Z,101951.81
2023-01-27T01:08:36.797Z,101945.22
2023-01-27T01:11:04.842Z,101935.94
2023-01-27T01:13:32.187Z,101942.31
2023-01-27T01:16:04.498Z,101939.06
2023-01-27T01:18:31.428Z,101940.91
2023-01-27T01:20:58.512Z,101942.75
2023-01-27T01:23:25.298Z,101942.53
2023-01-27T01:25:53.134Z,101942.19
2023-01-27T01:28:20.091Z,101949.75
2023-01-27T01:30:46.925Z,101944.84
2023-01-27T01:33:14.144Z,101944.75
2023-01-27T01:35:41.405Z,101956.50
2023-01-27T01:38:08.455Z,101954.41
2023-01-27T01:40:39.816Z,101957.53
2023-01-27T01:43:17.370Z,101956.50
2023-01-27T01:45:51.371Z,101966.59
2023-01-27T01:48:21.610Z,101965.56
2023-01-27T01:50:52.089Z,101961.47
2023-01-27T01:53:19.478Z,101966.47
2023-01-27T01:55:46.790Z,101972.63
2023-01-27T01:58:13.813Z,101972.88
2023-01-27T02:00:40.784Z,101984.03
2023-01-27T02:03:07.771Z,101984.63
2023-01-27T02:05:36.339Z,101977.88
2023-01-27T02:08:09.533Z,101986.50
2023-01-27T02:10:36.397Z,101985.16
2023-01-27T02:13:03.244Z,101990.66
2023-01-27T02:15:31.064Z,101991.72
2023-01-27T02:17:59.014Z,101994.53
2023-01-27T02:20:43.358Z,101990.66
2023-01-27T02:23:10.131Z,101998.00
2023-01-27T02:25:36.919Z,102000.53
2023-01-27T02:28:04.698Z,101998.84
2023-01-27T02:30:31.743Z,102000.47
2023-01-27T02:32:58.765Z,102002.53
2023-01-27T02:35:41.613Z,101995.94
2023-01-27T02:38:09.358Z,102002.53
2023-01-27T02:40:36.592Z,102004.63
2023-01-27T02:43:04.266Z,102011.59
2023-01-27T02:45:31.234Z,102018.81
2023-01-27T02:47:58.048Z,102027.53
2023-01-27T02:50:24.893Z,102032.56
2023-01-27T02:52:51.772Z,102029.94
2023-01-27T02:55:18.922Z,102050.69
2023-01-27T02:57:45.695Z,102048.94
2023-01-27T03:00:13.830Z,102053.94
2023-01-27T03:02:40.739Z,102056.47
2023-01-27T03:05:07.741Z,102070.44
2023-01-27T03:07:34.839Z,102069.38
2023-01-27T03:10:01.897Z,102073.69
2023-01-27T03:12:28.691Z,102072.75
2023-01-27T03:15:15.061Z,102094.03
2023-01-27T03:18:00.737Z,102096.94
2023-01-27T03:20:27.745Z,102096.72
2023-01-27T03:22:54.717Z,102104.75
2023-01-27T03:25:21.568Z,102107.41
2023-01-27T03:27:48.469Z,102107.41
2023-01-27T03:30:15.364Z,102116.47
2023-01-27T03:32:46.802Z,102118.94
2023-01-27T03:35:14.985Z,102127.16
2023-01-27T03:38:01.162Z,102128.88
2023-01-27T03:40:46.411Z,102138.31
2023-01-27T03:43:32.249Z,102141.75
2023-01-27T03:46:17.705Z,102156.50
2023-01-27T03:48:48.329Z,102153.78
2023-01-27T03:51:15.414Z,102166.69
2023-01-27T03:53:42.241Z,102174.59
2023-01-27T03:56:09.133Z,102175.75
2023-01-27T03:58:36.940Z,102185.50
2023-01-27T04:01:05.586Z,102185.72
2023-01-27T04:03:52.858Z,102196.41
2023-01-27T04:06:40.292Z,102206.06
2023-01-27T04:09:08.153Z,102203.84
2023-01-27T04:11:53.743Z,102206.06
2023-01-27T04:14:21.445Z,102209.75
2023-01-27T04:16:48.407Z,102208.94
2023-01-27T04:19:15.283Z,102215.94
2023-01-27T04:21:42.212Z,102214.06
2023-01-27T04:24:16.978Z,102218.47
2023-01-27T04:26:45.201Z,102222.38
2023-01-27T04:29:13.164Z,102215.25
2023-01-27T04:31:40.565Z,102222.66
2023-01-27T04:34:07.508Z,102220.22
2023-01-27T04:36:34.593Z,102221.47
2023-01-27T04:39:01.470Z,102225.28
2023-01-27T04:41:28.612Z,102226.09
2023-01-27T04:43:55.400Z,102233.31
2023-01-27T04:46:22.425Z,102237.06
2023-01-27T04:48:49.375Z,102231.88
2023-01-27T04:51:16.270Z,102231.47
2023-01-27T04:53:43.850Z,102242.72
2023-01-27T04:56:24.481Z,102247.75
2023-01-27T04:58:51.617Z,102236.00
2023-01-27T05:01:18.683Z,102245.22
2023-01-27T05:03:45.607Z,102251.31
2023-01-27T05:06:12.989Z,102250.78
2023-01-27T05:08:39.897Z,102254.13
2023-01-27T05:11:07.145Z,102254.06
2023-01-27T05:13:34.242Z,102257.53
2023-01-27T05:16:07.262Z,102252.69
2023-01-27T05:18:34.316Z,102251.66
2023-01-27T05:21:02.125Z,102260.50
2023-01-27T05:23:38.369Z,102266.00
2023-01-27T05:26:09.868Z,102265.22
2023-01-27T05:28:37.182Z,102260.72
2023-01-27T05:31:08.807Z,102262.81
2023-01-27T05:33:35.728Z,102259.53
2023-01-27T05:36:03.616Z,102262.25
2023-01-27T05:38:30.904Z,102263.72
2023-01-27T05:41:02.142Z,102264.94
2023-01-27T05:43:31.152Z,102265.56
2023-01-27T05:46:04.407Z,102262.69
2023-01-27T05:48:31.447Z,102258.31
2023-01-27T05:51:00.828Z,102264.03
2023-01-27T05:53:27.723Z,102267.31
2023-01-27T05:55:55.182Z,102269.19
2023-01-27T05:58:22.695Z,102275.13
2023-01-27T06:00:49.549Z,102272.81
2023-01-27T06:03:16.999Z,102275.34
2023-01-27T06:05:53.810Z,102277.00
2023-01-27T06:08:21.032Z,102272.28
2023-01-27T06:10:47.945Z,102275.69
2023-01-27T06:13:14.952Z,102280.88
2023-01-27T06:15:43.113Z,102284.75
2023-01-27T06:18:10.238Z,102286.28
2023-01-27T06:20:37.328Z,102288.97
2023-01-27T06:23:04.284Z,102294.03
2023-01-27T06:25:31.256Z,102297.75
2023-01-27T06:27:58.212Z,102291.63
2023-01-27T06:30:25.175Z,102308.47
2023-01-27T06:32:52.003Z,102302.31
2023-01-27T06:35:20.018Z,102308.09
2023-01-27T06:37:47.121Z,102308.22
2023-01-27T06:40:14.314Z,102312.38
2023-01-27T06:42:44.726Z,102324.72
2023-01-27T06:45:13.120Z,102327.38
2023-01-27T06:47:40.596Z,102334.94
2023-01-27T06:50:08.736Z,102334.56
2023-01-27T06:52:35.778Z,102340.28
2023-01-27T06:55:03.231Z,102341.28
2023-01-27T06:57:30.694Z,102340.25
2023-01-27T06:59:57.593Z,102346.63
2023-01-27T07:02:24.563Z,102349.47
2023-01-27T07:04:51.684Z,102358.13
2023-01-27T07:07:18.812Z,102360.19
2023-01-27T07:09:52.383Z,102367.44
2023-01-27T07:12:20.230Z,102371.13
2023-01-27T07:14:49.596Z,102380.13
2023-01-27T07:17:16.680Z,102390.44
2023-01-27T07:19:43.597Z,102393.69
2023-01-27T07:22:10.595Z,102404.22
2023-01-27T07:24:37.590Z,102406.69
2023-01-27T07:27:04.485Z,102416.56
2023-01-27T07:29:31.541Z,102426.22
2023-01-27T07:31:58.606Z,102417.78
2023-01-27T07:34:25.603Z,102429.69
2023-01-27T07:36:52.492Z,102432.22
2023-01-27T07:39:20.412Z,102435.88
2023-01-27T07:41:48.536Z,102435.13
2023-01-27T07:44:15.574Z,102446.00
2023-01-27T07:46:42.515Z,102451.97
2023-01-27T07:49:09.802Z,102451.13
2023-01-27T07:51:36.874Z,102457.44
2023-01-27T07:54:04.335Z,102471.19
2023-01-27T07:56:32.329Z,102475.72
2023-01-27T07:58:59.127Z,102472.22
2023-01-27T08:01:26.047Z,102486.19
2023-01-27T08:03:52.894Z,102488.25
2023-01-27T08:06:19.706Z,102495.72
2023-01-27T08:08:46.557Z,102499.97
2023-01-27T08:11:14.408Z,102498.72
2023-01-27T08:13:41.653Z,102506.94
2023-01-27T08:16:11.605Z,102509.19
2023-01-27T08:18:38.577Z,102516.38
2023-01-27T08:21:06.543Z,102521.53
2023-01-27T08:23:33.805Z,102529.50
2023-01-27T08:26:01.862Z,102520.06
2023-01-27T08:28:29.911Z,102509.81
2023-01-27T08:31:03.723Z,102523.75
2023-01-27T08:33:30.683Z,102523.56
2023-01-27T08:36:01.792Z,102536.53
2023-01-27T08:38:28.620Z,102545.53
2023-01-27T08:40:55.761Z,102549.88
2023-01-27T08:43:22.597Z,102549.06
2023-01-27T08:45:52.118Z,102553.13
2023-01-27T08:48:19.010Z,102555.53
2023-01-27T08:50:45.850Z,102562.31
2023-01-27T08:53:12.689Z,102568.47
2023-01-27T08:55:39.680Z,102568.91
2023-01-27T08:58:06.457Z,102574.84
2023-01-27T09:00:33.459Z,102573.81
2023-01-27T09:03:00.323Z,102576.28
2023-01-27T09:05:27.240Z,102579.31
2023-01-27T09:07:54.113Z,102577.03
2023-01-27T09:10:21.263Z,102577.03
2023-01-27T09:12:48.553Z,102584.50
2023-01-27T09:15:15.851Z,102580.59
2023-01-27T09:17:42.957Z,102595.53
2023-01-27T09:20:10.604Z,102593.13
2023-01-27T09:22:41.015Z,102595.78
2023-01-27T09:25:08.813Z,102603.56
2023-01-27T09:27:39.670Z,102608.91
2023-01-27T09:30:07.773Z,102615.00
2023-01-27T09:32:34.516Z,102609.25
2023-01-27T09:35:01.368Z,102616.25
2023-01-27T09:37:28.355Z,102620.97
2023-01-27T09:39:57.073Z,102621.00
2023-01-27T09:42:23.913Z,102624.91
2023-01-27T09:44:52.056Z,102618.53
2023-01-27T09:47:37.277Z,102613.44
2023-01-27T09:50:13.343Z,102619.75
2023-01-27T09:52:49.580Z,102630.22
2023-01-27T09:55:25.859Z,102628.19
2023-01-27T09:58:00.873Z,102628.03
2023-01-27T10:00:53.484Z,102634.16
2023-01-27T10:03:26.175Z,102632.13
2023-01-27T10:06:11.460Z,102630.50
2023-01-27T10:08:53.248Z,102626.66
2023-01-27T10:11:30.360Z,102633.78
2023-01-27T10:13:57.166Z,102635.88
2023-01-27T10:16:37.839Z,102638.31
2023-01-27T10:19:10.766Z,102635.44
2023-01-27T10:21:52.093Z,102637.25
2023-01-27T10:24:37.861Z,102629.22
2023-01-27T10:27:09.411Z,102633.53
2023-01-27T10:29:42.098Z,102640.88
2023-01-27T10:32:14.322Z,102646.03
2023-01-27T10:34:47.079Z,102640.44
2023-01-27T10:37:32.711Z,102633.06
2023-01-27T10:40:02.618Z,102645.66
2023-01-27T10:42:48.151Z,102641.13
2023-01-27T10:45:30.035Z,102649.41
2023-01-27T10:48:15.515Z,102642.22
2023-01-27T10:50:45.148Z,102640.78
2023-01-27T10:53:21.663Z,102646.91
2023-01-27T10:55:57.596Z,102648.44
2023-01-27T10:58:30.206Z,102642.25
2023-01-27T11:01:19.890Z,102630.03
2023-01-27T11:03:54.610Z,102635.25
2023-01-27T11:06:24.053Z,102638.25
2023-01-27T11:08:57.804Z,102630.22
2023-01-27T11:11:43.736Z,102626.44
2023-01-27T11:14:30.541Z,102629.25
2023-01-27T11:17:03.221Z,102619.47
2023-01-27T11:19:30.401Z,102622.16
2023-01-27T11:22:07.808Z,102612.16
2023-01-27T11:24:41.574Z,102616.28
2023-01-27T11:27:20.385Z,102608.25
2023-01-27T11:29:54.982Z,102612.88
2023-01-27T11:32:30.366Z,102612.63
2023-01-27T11:35:05.564Z,102612.72
2023-01-27T11:37:35.121Z,102622.97
2023-01-27T11:40:02.628Z,102632.66
2023-01-27T11:42:34.690Z,102631.34
2023-01-27T11:45:01.863Z,102625.19
2023-01-27T11:47:37.490Z,102634.66
2023-01-27T11:50:05.094Z,102626.53
2023-01-27T11:52:32.667Z,102624.47
2023-01-27T11:55:08.689Z,102617.88
2023-01-27T11:57:36.462Z,102618.91
2023-01-27T12:00:06.003Z,102629.81
2023-01-27T12:02:44.476Z,102619.19
2023-01-27T12:05:17.753Z,102615.50
2023-01-27T12:07:47.017Z,102611.88
2023-01-27T12:10:22.824Z,102610.78
2023-01-27T12:12:49.771Z,102611.53
2023-01-27T12:15:17.791Z,102611.78
2023-01-27T12:17:51.658Z,102602.69
2023-01-27T12:20:21.602Z,102607.22
2023-01-27T12:22:52.158Z,102601.00
2023-01-27T12:25:24.603Z,102597.34
2023-01-27T12:28:02.783Z,102595.97
2023-01-27T12:30:31.117Z,102594.94
2023-01-27T12:32:58.745Z,102600.69
2023-01-27T12:35:25.570Z,102593.59
2023-01-27T12:37:57.495Z,102594.63
2023-01-27T12:40:29.097Z,102590.28
2023-01-27T12:43:01.859Z,102580.41
2023-01-27T12:45:31.468Z,102577.53
2023-01-27T12:48:14.766Z,102579.66
2023-01-27T12:50:43.113Z,102582.56
2023-01-27T12:53:09.959Z,102575.34
2023-01-27T12:55:39.586Z,102577.38
2023-01-27T12:58:06.911Z,102567.66
2023-01-27T13:00:34.286Z,102566.34
2023-01-27T13:03:05.308Z,102573.88
2023-01-27T13:05:36.091Z,102557.38
2023-01-27T13:08:03.274Z,102570.19
2023-01-27T13:10:30.632Z,102565.72
2023-01-27T13:12:58.585Z,102555.78
2023-01-27T13:15:28.540Z,102554.84
2023-01-27T13:17:56.167Z,102551.31
2023-01-27T13:20:30.695Z,102551.72
2023-01-27T13:23:06.321Z,102556.88
2023-01-27T13:25:38.584Z,102555.44
2023-01-27T13:28:07.029Z,102560.66
2023-01-27T13:30:36.976Z,102557.25
2023-01-27T13:33:17.929Z,102551.16
2023-01-27T13:35:55.902Z,102548.63
2023-01-27T13:38:24.460Z,102537.81
2023-01-27T13:40:51.438Z,102550.06
2023-01-27T13:43:24.244Z,102549.66
2023-01-27T13:45:55.557Z,102546.56
2023-01-27T13:48:40.913Z,102562.00
2023-01-27T13:51:17.266Z,102555.66
2023-01-27T13:53:47.169Z,102545.84
2023-01-27T13:56:13.976Z,102561.91
2023-01-27T13:58:52.690Z,102561.72
2023-01-27T14:01:28.804Z,102556.56
2023-01-27T14:04:16.355Z,102564.22
2023-01-27T14:07:00.285Z,102548.25
2023-01-27T14:09:27.050Z,102551.97
2023-01-27T14:12:00.291Z,102563.13
2023-01-27T14:14:27.099Z,102568.31
2023-01-27T14:17:14.738Z,102570.38
2023-01-27T14:19:47.824Z,102577.94
2023-01-27T14:22:18.168Z,102582.44
2023-01-27T14:24:53.088Z,102568.41
2023-01-27T14:27:38.144Z,102560.59
2023-01-27T14:30:04.906Z,102564.38
2023-01-27T14:32:38.028Z,102547.38
2023-01-27T14:35:09.917Z,102516.38
2023-01-27T14:37:55.727Z,102507.00
2023-01-27T14:40:31.886Z,102495.13
2023-01-27T14:43:12.089Z,102486.09
2023-01-27T14:45:40.644Z,102484.19
2023-01-27T14:48:25.144Z,102491.97
2023-01-27T14:50:52.039Z,102512.84
2023-01-27T14:53:48.112Z,102511.72
2023-01-27T14:56:17.613Z,102506.97
2023-01-27T14:58:54.055Z,102511.44
2023-01-27T15:01:26.689Z,102514.22
2023-01-27T15:04:12.475Z,102524.06
2023-01-27T15:06:47.537Z,102533.72
2023-01-27T15:09:33.243Z,102542.78
2023-01-27T15:12:00.095Z,102548.53
2023-01-27T15:15:05.362Z,102551.22
2023-01-27T15:17:44.154Z,102541.44
2023-01-27T15:20:19.904Z,102551.75
2023-01-27T15:22:49.472Z,102562.31
2023-01-27T15:25:19.998Z,102557.63
2023-01-27T15:27:48.579Z,102574.50
2023-01-27T15:30:24.384Z,102575.94
2023-01-27T15:32:51.819Z,102587.94
2023-01-27T15:35:24.777Z,102599.84
2023-01-27T15:38:14.103Z,102602.34
2023-01-27T15:40:58.982Z,102593.94
2023-01-27T15:43:29.629Z,102618.16
2023-01-27T15:45:57.200Z,102623.06
2023-01-27T15:48:30.905Z,102627.63
2023-01-27T15:51:03.796Z,102635.19
2023-01-27T15:53:35.631Z,102646.28
2023-01-27T15:56:03.575Z,102641.75
2023-01-27T15:58:49.704Z,102647.09
2023-01-27T16:01:29.145Z,102649.72
2023-01-27T16:04:14.347Z,102649.09
2023-01-27T16:06:49.816Z,102655.88
2023-01-27T16:09:21.739Z,102658.34
2023-01-27T16:12:07.225Z,102657.94
2023-01-27T16:14:38.270Z,102655.91
2023-01-27T16:17:07.932Z,102654.03
2023-01-27T16:19:38.851Z,102654.44
2023-01-27T16:22:07.465Z,102653.22
2023-01-27T16:24:43.478Z,102655.25
2023-01-27T16:27:16.514Z,102663.25
2023-01-27T16:29:57.826Z,102660.56
2023-01-27T16:32:28.663Z,102657.47
2023-01-27T16:35:06.856Z,102667.53
2023-01-27T16:37:36.047Z,102673.25
2023-01-27T16:40:09.332Z,102672.63
2023-01-27T16:42:40.423Z,102674.06
2023-01-27T16:45:17.513Z,102677.28
2023-01-27T16:47:47.254Z,102685.91
2023-01-27T16:50:34.037Z,102698.66
2023-01-27T16:53:01.417Z,102698.66
2023-01-27T16:55:28.561Z,102702.97
2023-01-27T16:57:57.715Z,102695.78
2023-01-27T17:00:33.254Z,102691.66
2023-01-27T17:03:02.900Z,102692.50
2023-01-27T17:05:30.006Z,102700.94
2023-01-27T17:08:15.441Z,102694.31
2023-01-27T17:10:49.558Z,102695.34
2023-01-27T17:13:36.245Z,102701.50
2023-01-27T17:16:05.675Z,102707.84
2023-01-27T17:18:46.872Z,102707.41
2023-01-27T17:21:31.711Z,102702.47
2023-01-27T17:24:09.866Z,102709.47
2023-01-27T17:26:36.985Z,102714.13
2023-01-27T17:29:04.410Z,102717.44
2023-01-27T17:31:36.714Z,102716.63
2023-01-27T17:34:07.198Z,102714.97
2023-01-27T17:36:37.313Z,102714.72
2023-01-27T17:39:04.191Z,102725.19
2023-01-27T17:41:35.783Z,102725.94
2023-01-27T17:44:04.164Z,102721.38
2023-01-27T17:46:34.282Z,102730.00
2023-01-27T17:49:04.037Z,102733.81
2023-01-27T17:51:39.467Z,102729.41
2023-01-27T17:54:27.200Z,102731.50
2023-01-27T17:57:01.129Z,102733.75
2023-01-27T17:59:29.147Z,102722.44
2023-01-27T18:02:03.742Z,102728.13
2023-01-27T18:04:33.035Z,102729.41
2023-01-27T18:07:00.240Z,102737.78
2023-01-27T18:09:27.502Z,102732.72
2023-01-27T18:12:05.193Z,102741.19
2023-01-27T18:14:33.322Z,102744.22
2023-01-27T18:17:04.836Z,102737.84
2023-01-27T18:19:32.997Z,102737.25
2023-01-27T18:22:09.207Z,102744.47
2023-01-27T18:24:37.825Z,102740.75
2023-01-27T18:27:18.809Z,102744.41
2023-01-27T18:29:46.603Z,102747.59
2023-01-27T18:32:13.539Z,102736.34
2023-01-27T18:34:51.194Z,102736.53
2023-01-27T18:37:24.077Z,102742.09
2023-01-27T18:39:53.286Z,102747.66
2023-01-27T18:42:22.028Z,102747.84
2023-01-27T18:44:49.522Z,102742.72
2023-01-27T18:47:22.665Z,102736.69
2023-01-27T18:49:56.115Z,102748.00
2023-01-27T18:52:23.238Z,102754.56
2023-01-27T18:54:53.521Z,102765.69
2023-01-27T18:57:20.415Z,102760.56
2023-01-27T18:59:47.780Z,102759.72
2023-01-27T19:02:16.679Z,102764.00
2023-01-27T19:04:44.441Z,102758.25
2023-01-27T19:07:16.328Z,102766.88
2023-01-27T19:09:44.521Z,102762.56
2023-01-27T19:12:11.529Z,102759.19
2023-01-27T19:14:39.321Z,102757.34
2023-01-27T19:17:11.704Z,102758.63
2023-01-27T19:19:38.575Z,102755.97
2023-01-27T19:22:05.724Z,102764.59
2023-01-27T19:24:32.930Z,102764.41
2023-01-27T19:26:59.852Z,102760.31
2023-01-27T19:29:26.667Z,102763.59
2023-01-27T19:31:53.422Z,102765.88
2023-01-27T19:34:20.319Z,102766.50
2023-01-27T19:36:47.609Z,102766.13
2023-01-27T19:39:15.682Z,102756.31
2023-01-27T19:41:43.203Z,102754.03
2023-01-27T19:44:10.634Z,102753.97
2023-01-27T19:46:38.707Z,102757.66
2023-01-27T19:49:05.904Z,102743.84
2023-01-27T19:51:32.915Z,102755.88
2023-01-27T19:53:59.832Z,102747.16
2023-01-27T19:56:29.794Z,102746.41
2023-01-27T19:58:56.596Z,102754.16
2023-01-27T20:01:24.667Z,102748.41
2023-01-27T20:03:52.491Z,102757.25
2023-01-27T20:06:23.576Z,102765.22
2023-01-27T20:08:57.565Z,102761.75
2023-01-27T20:11:33.903Z,102754.38
2023-01-27T20:14:01.696Z,102757.84
2023-01-27T20:16:29.327Z,102763.56
2023-01-27T20:18:57.024Z,102767.19
2023-01-27T20:21:25.306Z,102775.81
2023-01-27T20:23:52.567Z,102768.47
2023-01-27T20:26:22.341Z,102770.09
2023-01-27T20:28:50.893Z,102760.84
2023-01-27T20:31:20.497Z,102755.50
2023-01-27T20:33:50.342Z,102753.69
2023-01-27T20:36:18.967Z,102751.66
2023-01-27T20:38:46.660Z,102753.13
2023-01-27T20:41:17.398Z,102745.13
2023-01-27T20:43:44.676Z,102742.19
2023-01-27T20:46:12.746Z,102739.31
2023-01-27T20:48:39.738Z,102750.34
2023-01-27T20:51:08.729Z,102736.75
2023-01-27T20:53:37.320Z,102736.53
2023-01-27T20:56:04.306Z,102732.81
2023-01-27T20:58:32.188Z,102731.97
2023-01-27T21:01:08.332Z,102729.97
2023-01-27T21:03:35.973Z,102729.31
2023-01-27T21:06:03.203Z,102727.03
2023-01-27T21:08:30.377Z,102714.88
2023-01-27T21:10:59.394Z,102716.53
2023-01-27T21:13:26.302Z,102719.50
2023-01-27T21:16:01.351Z,102722.59
2023-01-27T21:18:29.216Z,102734.91
2023-01-27T21:20:59.666Z,102734.16
2023-01-27T21:23:28.354Z,102733.13
2023-01-27T21:25:57.422Z,102732.00
2023-01-27T21:28:26.879Z,102729.75
2023-01-27T21:30:53.777Z,102724.88
2023-01-27T21:33:20.542Z,102725.34
2023-01-27T21:35:53.774Z,102727.19
2023-01-27T21:38:20.642Z,102728.69
2023-01-27T21:40:47.507Z,102736.72
2023-01-27T21:43:33.095Z,102734.91
2023-01-27T21:46:01.053Z,102712.16
2023-01-27T21:48:28.014Z,102719.31
2023-01-27T21:50:54.777Z,102725.25
2023-01-27T21:53:23.131Z,102727.19
2023-01-27T21:55:50.080Z,102737.25
2023-01-27T21:58:17.055Z,102742.03
2023-01-27T22:00:43.937Z,102737.72
2023-01-27T22:03:11.623Z,102731.19
2023-01-27T22:05:41.175Z,102723.63
2023-01-27T22:08:08.478Z,102735.19
2023-01-27T22:10:35.234Z,102725.84
2023-01-27T22:13:03.920Z,102718.94
2023-01-27T22:15:31.212Z,102732.88
2023-01-27T22:17:58.584Z,102727.66
2023-01-27T22:20:25.872Z,102724.88
2023-01-27T22:22:52.984Z,102725.34
2023-01-27T22:25:19.905Z,102712.69
2023-01-27T22:27:47.075Z,102709.75
2023-01-27T22:30:15.514Z,102711.03
2023-01-27T22:32:42.664Z,102706.72
2023-01-27T22:35:09.953Z,102705.00
2023-01-27T22:37:37.726Z,102713.81
2023-01-27T22:40:06.419Z,102716.72
2023-01-27T22:42:33.291Z,102716.91
2023-01-27T22:45:00.266Z,102714.88
2023-01-27T22:47:27.042Z,102714.63
2023-01-27T22:49:53.978Z,102730.03
2023-01-27T22:52:20.887Z,102724.09
2023-01-27T22:54:48.022Z,102725.34
2023-01-27T22:57:14.918Z,102725.47
2023-01-27T22:59:42.497Z,102718.19
2023-01-27T23:02:09.371Z,102736.66
2023-01-27T23:04:36.304Z,102728.44
2023-01-27T23:07:03.176Z,102738.97
2023-01-27T23:09:31.158Z,102744.53
2023-01-27T23:11:58.348Z,102724.00
2023-01-27T23:14:25.218Z,102732.75
2023-01-27T23:16:52.906Z,102738.56
2023-01-27T23:19:21.909Z,102738.97
2023-01-27T23:21:48.773Z,102749.06
2023-01-27T23:24:16.257Z,102740.19
2023-01-27T23:26:43.657Z,102746.50
2023-01-27T23:29:22.876Z,102739.47
2023-01-27T23:31:51.239Z,102744.25
2023-01-27T23:34:18.283Z,102744.81
2023-01-27T23:36:45.417Z,102732.06
2023-01-27T23:39:15.564Z,102719.84
2023-01-27T23:41:42.401Z,102714.50
2023-01-27T23:44:10.657Z,102698.56
2023-01-27T23:46:40.639Z,102684.69
2023-01-27T23:49:08.091Z,102669.75
2023-01-27T23:51:35.118Z,102672.84
2023-01-27T23:54:06.509Z,102679.44
2023-01-27T23:56:33.686Z,102669.06
2023-01-27T23:59:00.897Z,102671.75
